Flight Track Log - Related Links

Times and Time Zones

All times are in EDT time to prevent confusion due to time zone crossing. See the SWA2690 flight status page for this flight to view local times or setup timezone preferences in your user account.

Time Position Orientation Groundspeed Altitude Reporting Facility
EDT Latitude Longitude Course Direction KTS MPH feet Rate Location/Type
Sat 02:42:15 PM 26.2782 -80.6474 111° Southeast  Level FlightAware Approximate
Sat 02:43:15 PM 26.3671 -80.6947 117° Southeast  Level FlightAware Approximate
Sat 02:44:15 PM 26.4499 -80.7541 121° Southeast  Level FlightAware Approximate
Sat 02:45:15 PM 26.5368 -80.8056 125° Southeast  Level FlightAware Approximate
Sat 02:46:15 PM 26.6239 -80.8565 128° Southeast  Level FlightAware Approximate
Sat 02:47:15 PM 26.7065 -80.9165 130° Southeast  Level FlightAware Approximate
Sat 02:48:15 PM 26.7769 -80.9936 130° Southeast  Level FlightAware Approximate
Sat 02:49:32 PM 26.0764 -80.0742 85° East 196 226 3,600  Level Miami Center
Sat 02:50:33 PM 26.0819 -80.0028 87° East 237 273 5,000 1,659 Climbing Miami Center
Sat 02:51:35 PM 26.0856 -79.9311 359° North 234 269 7,000 1,026 Climbing Miami Center
Sat 02:52:30 PM 26.1400 -79.9325 295° West 262 302 7,000 155 Level Miami Center
Sat 02:53:31 PM 26.1739 -80.0119 282° West 284 327 7,300 492 Climbing Miami Center
Sat 02:54:32 PM 26.1925 -80.1097 283° West 297 342 8,000 439 Climbing Miami Center
Sat 02:55:34 PM 26.2094 -80.1936 283° West 293 337 8,200 488 Climbing Miami Center
Sat 02:56:35 PM 26.2283 -80.2822 285° West 295 339 9,000 344 Climbing Miami Center
Sat 02:57:36 PM 26.2511 -80.3756 285° West 299 344 8,900 932 Descending Miami Center
Sat 02:59:03 PM 26.2814 -80.5039 293° West 325 374 11,300 1,755 Climbing Miami Center
Sat 03:00:03 PM 26.3147 -80.5928 314° West 338 389 13,200 2,700 Climbing Miami Center
Sat 03:01:03 PM 26.3917 -80.6811 328° Northwest 354 407 16,700 3,000 Climbing Miami Center
Sat 03:02:03 PM 26.4717 -80.7369 328° Northwest 370 426 19,200 2,600 Climbing Miami Center
Sat 03:03:03 PM 26.5722 -80.8078 327° Northwest 385 443 21,900 2,450 Climbing Miami Center
Sat 03:04:03 PM 26.6561 -80.8686 329° Northwest 391 450 24,100 2,150 Climbing Miami Center
Sat 03:05:03 PM 26.7628 -80.9397 331° Northwest 399 459 26,200 1,800 Climbing Miami Center
Sat 03:06:03 PM 26.8569 -80.9989 331° Northwest 411 473 27,700 1,600 Climbing Miami Center
Sat 03:07:03 PM 26.9636 -81.0656 331° Northwest 422 486 29,400 1,900 Climbing Miami Center
Sat 03:08:03 PM 27.0683 -81.1300 332° Northwest 427 491 31,500 1,950 Climbing Miami Center
Sat 03:09:03 PM 27.1708 -81.1919 333° Northwest 427 491 33,300 1,700 Climbing Miami Center
Sat 03:10:03 PM 27.2733 -81.2519 332° Northwest 427 491 34,900 1,600 Climbing Miami Center
Sat 03:11:03 PM 27.3758 -81.3144 331° Northwest 422 486 36,500 1,350 Climbing Miami Center
Sat 03:12:03 PM 27.4761 -81.3767 333° Northwest 417 480 37,600 750 Climbing Miami Center
Sat 03:13:03 PM 27.5889 -81.4419 330° Northwest 412 474 38,000 200 Climbing Miami Center
Sat 03:14:03 PM 27.6892 -81.5069 333° Northwest 407 468 38,000  Level Miami Center
Sat 03:15:03 PM 27.7894 -81.5650 330° Northwest 412 474 38,000  Level Miami Center
Sat 03:16:03 PM 27.8794 -81.6228 332° Northwest 412 474 38,000  Level Miami Center
Sat 03:18:04 PM 28.0947 -81.7514 342° North 416 479 38,000  Level Jacksonville Center
Sat 03:19:04 PM 28.2058 -81.7928 343° North 416 479 38,000  Level Jacksonville Center
Sat 03:20:04 PM 28.3186 -81.8314 341° North 416 479 38,000  Level Jacksonville Center
Sat 03:21:04 PM 28.4192 -81.8706 344° North 416 479 38,000  Level Jacksonville Center
Sat 03:22:04 PM 28.5300 -81.9072 342° North 416 479 38,000  Level Jacksonville Center
Sat 03:23:04 PM 28.6411 -81.9486 346° North 421 484 38,000  Level Jacksonville Center
Sat 03:24:04 PM 28.7644 -81.9831 342° North 421 484 38,000  Level Jacksonville Center
Sat 03:25:04 PM 28.8753 -82.0247 343° North 421 484 38,000  Level Jacksonville Center
Sat 03:26:04 PM 28.9675 -82.0572 344° North 415 478 38,000  Level Jacksonville Center
Sat 03:27:04 PM 29.0783 -82.0942 344° North 401 461 38,000  Level Jacksonville Center
Sat 03:28:04 PM 29.1892 -82.1314 343° North 401 461 38,000  Level Jacksonville Center
Sat 03:29:04 PM 29.2958 -82.1686 346° North 401 461 38,000 50 Level Jacksonville Center
Sat 03:30:04 PM 29.4067 -82.2014 346° North 401 461 38,100 500 Climbing Jacksonville Center
Sat 03:31:04 PM 29.5175 -82.2339 346° North 401 461 39,000 450 Climbing Jacksonville Center
Sat 03:32:04 PM 29.6283 -82.2667 346° North 401 461 39,000  Level Jacksonville Center
Sat 03:33:04 PM 29.7389 -82.2994 344° North 401 461 39,000  Level Jacksonville Center
Sat 03:34:04 PM 29.8353 -82.3322 346° North 396 456 39,000  Level Jacksonville Center
Sat 03:35:04 PM 29.9544 -82.3675 344° North 401 461 39,000  Level Jacksonville Center
Sat 03:36:04 PM 30.0714 -82.4053 344° North 391 450 39,000  Level Jacksonville Center
Sat 03:37:04 PM 30.1800 -82.4408 346° North 391 450 39,000  Level Jacksonville Center
Sat 03:38:04 PM 30.2867 -82.4717 344° North 396 456 39,000  Level Jacksonville Center
Sat 03:39:04 PM 30.3933 -82.5072 345° North 396 456 39,000  Level Jacksonville Center
Sat 03:40:04 PM 30.5000 -82.5406 346° North 396 456 39,000  Level Jacksonville Center
Sat 03:41:03 PM 30.6044 -82.5717 345° North 396 456 39,000  Level Jacksonville Center
Sat 03:42:03 PM 30.7131 -82.6050 345° North 396 456 39,000  Level Jacksonville Center
Sat 03:43:04 PM 30.8194 -82.6386 345° North 396 456 39,000  Level Jacksonville Center
Sat 03:44:03 PM 30.9283 -82.6722 344° North 396 456 39,000  Level Jacksonville Center
Sat 03:45:03 PM 31.0347 -82.7083 347° North 396 456 39,000  Level Jacksonville Center
Sat 03:46:04 PM 31.1456 -82.7372 343° North 396 456 39,000  Level Jacksonville Center
Sat 03:47:59 PM 31.3356 -82.8039 346° North 403 464 39,000  Level Atlanta Center
Sat 03:48:59 PM 31.4506 -82.8364 345° North 403 464 39,000  Level Atlanta Center
Sat 03:49:59 PM 31.5594 -82.8714 345° North 403 464 39,000  Level Atlanta Center
Sat 03:50:59 PM 31.6706 -82.9067 346° North 403 464 39,000  Level Atlanta Center
Sat 03:51:59 PM 31.7814 -82.9394 345° North 403 464 39,000  Level Atlanta Center
Sat 03:52:59 PM 31.8903 -82.9747 345° North 403 464 39,000  Level Atlanta Center
Sat 03:53:59 PM 32.0011 -83.0103 345° North 403 464 39,000  Level Atlanta Center
Sat 03:54:59 PM 32.1100 -83.0458 345° North 403 464 39,000  Level Atlanta Center
Sat 03:55:59 PM 32.2208 -83.0814 345° North 403 464 39,000  Level Atlanta Center
Sat 03:56:59 PM 32.3297 -83.1169 346° North 403 464 39,000  Level Atlanta Center
Sat 03:57:59 PM 32.4406 -83.1503 343° North 403 464 39,000  Level Atlanta Center
Sat 03:58:59 PM 32.5472 -83.1886 345° North 403 464 39,000  Level Atlanta Center
Sat 03:59:59 PM 32.6539 -83.2222 345° North 403 464 39,000  Level Atlanta Center
Sat 04:00:59 PM 32.7647 -83.2583 344° North 403 464 39,000  Level Atlanta Center
Sat 04:01:59 PM 32.8714 -83.2944 344° North 403 464 39,000  Level Atlanta Center
Sat 04:02:59 PM 32.9781 -83.3306 345° North 403 464 39,000  Level Atlanta Center
Sat 04:03:59 PM 33.0931 -83.3669 346° North 398 458 39,000  Level Atlanta Center
Sat 04:04:59 PM 33.1997 -83.3983 344° North 398 458 39,000  Level Atlanta Center
Sat 04:05:59 PM 33.3064 -83.4347 344° North 398 458 39,000  Level Atlanta Center
Sat 04:06:59 PM 33.4089 -83.4689 345° North 393 452 39,000  Level Atlanta Center
Sat 04:07:59 PM 33.5156 -83.5031 345° North 393 452 39,000  Level Atlanta Center
Sat 04:08:59 PM 33.6200 -83.5375 345° North 393 452 39,000  Level Atlanta Center
Sat 04:09:59 PM 33.7244 -83.5717 345° North 387 445 39,000  Level Atlanta Center
Sat 04:10:59 PM 33.8289 -83.6061 344° North 387 445 39,000  Level Atlanta Center
Sat 04:11:59 PM 33.9333 -83.6433 346° North 382 440 39,000  Level Atlanta Center
Sat 04:12:59 PM 34.0378 -83.6753 344° North 377 434 39,000  Level Atlanta Center
Sat 04:13:59 PM 34.1425 -83.7125 345° North 382 440 39,000  Level Atlanta Center
Sat 04:14:59 PM 34.2489 -83.7472 344° North 382 440 39,000  Level Atlanta Center
Sat 04:15:59 PM 34.3511 -83.7822 345° North 382 440 39,000  Level Atlanta Center
Sat 04:16:59 PM 34.4453 -83.8122 344° North 382 440 39,000  Level Atlanta Center
Sat 04:17:59 PM 34.5517 -83.8497 343° North 382 440 39,000  Level Atlanta Center
Sat 04:18:59 PM 34.6542 -83.8872 344° North 382 440 39,000  Level Atlanta Center
Sat 04:19:59 PM 34.7542 -83.9225 345° North 376 433 39,000  Level Atlanta Center
Sat 04:20:59 PM 34.8586 -83.9578 344° North 376 433 39,000  Level Atlanta Center
Sat 04:21:59 PM 34.9608 -83.9931 344° North 376 433 39,000  Level Atlanta Center
Sat 04:22:59 PM 35.0631 -84.0286 345° North 376 433 39,000  Level Atlanta Center
Sat 04:23:59 PM 35.1694 -84.0642 344° North 376 433 39,000  Level Atlanta Center
Sat 04:24:59 PM 35.2758 -84.1025 344° North 381 438 39,000  Level Atlanta Center
Sat 04:25:59 PM 35.3803 -84.1381 344° North 381 438 39,000  Level Atlanta Center
Sat 04:26:59 PM 35.4844 -84.1739 344° North 381 438 39,000 450 Level Atlanta Center
Sat 04:27:59 PM 35.5867 -84.2097 344° North 381 438 39,900 500 Climbing Atlanta Center
Sat 04:28:59 PM 35.6911 -84.2458 344° North 381 438 40,000 50 Climbing Atlanta Center
Sat 04:29:59 PM 35.7953 -84.2819 344° North 381 438 40,000  Level Atlanta Center
Sat 04:30:59 PM 35.8994 -84.3181 344° North 381 438 40,000  Level Atlanta Center
Sat 04:32:59 PM 36.1083 -84.3922 344° North 381 438 40,000  Level Indianapolis Center
Sat 04:33:59 PM 36.2103 -84.4294 344° North 381 438 40,000  Level Indianapolis Center
Sat 04:34:59 PM 36.3142 -84.4667 344° North 381 438 40,000  Level Indianapolis Center
Sat 04:35:59 PM 36.4183 -84.5042 345° North 381 438 40,000  Level Indianapolis Center
Sat 04:36:59 PM 36.5222 -84.5389 342° North 376 433 40,000  Level Indianapolis Center
Sat 04:37:59 PM 36.6242 -84.5792 345° North 376 433 40,000  Level Indianapolis Center
Sat 04:38:59 PM 36.7281 -84.6142 343° North 381 438 40,000  Level Indianapolis Center
Sat 04:39:59 PM 36.8342 -84.6547 345° North 381 438 40,000  Level Indianapolis Center
Sat 04:40:59 PM 36.9381 -84.6900 343° North 381 438 40,000  Level Indianapolis Center
Sat 04:41:59 PM 37.0419 -84.7306 342° North 381 438 40,000  Level Indianapolis Center
Sat 04:42:59 PM 37.1439 -84.7711 345° North 381 438 40,000  Level Indianapolis Center
Sat 04:43:59 PM 37.2561 -84.8094 344° North 381 438 40,000  Level Indianapolis Center
Sat 04:44:59 PM 37.3600 -84.8478 344° North 379 436 40,000  Level Indianapolis Center
Sat 04:45:59 PM 37.4639 -84.8861 344° North 379 436 40,000  Level Indianapolis Center
Sat 04:46:59 PM 37.5656 -84.9222 343° North 379 436 40,000  Level Indianapolis Center
Sat 04:47:59 PM 37.6653 -84.9606 344° North 374 430 40,000  Level Indianapolis Center
Sat 04:48:59 PM 37.7711 -84.9994 344° North 383 441 40,000 -150 Level Indianapolis Center
Sat 04:49:59 PM 37.8750 -85.0383 344° North 383 441 39,700 -650 Descending Indianapolis Center
Sat 04:50:59 PM 37.9789 -85.0772 344° North 383 441 38,700 -1,000 Descending Indianapolis Center
Sat 04:51:59 PM 38.0806 -85.1136 344° North 377 434 37,700 -950 Descending Indianapolis Center
Sat 04:52:59 PM 38.1803 -85.1503 343° North 372 428 36,800 -900 Descending Indianapolis Center
Sat 04:53:59 PM 38.2819 -85.1894 346° North 372 428 35,900 -900 Descending Indianapolis Center
Sat 04:54:59 PM 38.3711 -85.2181 344° North 377 434 35,000 -950 Descending Indianapolis Center
Sat 04:55:59 PM 38.4728 -85.2547 344° North 377 434 34,000 -500 Descending Indianapolis Center
Sat 04:56:59 PM 38.5725 -85.2917 342° North 377 434 34,000 -100 Level Indianapolis Center
Sat 04:57:59 PM 38.6656 -85.3311 345° North 372 428 33,800 -650 Descending Indianapolis Center
Sat 04:58:59 PM 38.7631 -85.3653 343° North 367 422 32,700 -1,050 Descending Indianapolis Center
Sat 04:59:59 PM 38.8628 -85.4053 344° North 367 422 31,700 -1,000 Descending Indianapolis Center
Sat 05:00:59 PM 38.9622 -85.4425 343° North 360 414 30,700 -850 Descending Indianapolis Center
Sat 05:01:59 PM 39.0678 -85.4853 344° North 360 414 30,000 -843 Descending Indianapolis Center
Sat 05:03:00 PM 39.1631 -85.5200 344° North 360 414 29,000 -500 Descending Indianapolis Center
Sat 05:03:59 PM 39.2628 -85.5578 343° North 360 414 29,000  Level Indianapolis Center
Sat 05:04:59 PM 39.3600 -85.5953 344° North 360 414 29,000  Level Indianapolis Center
Sat 05:05:59 PM 39.4594 -85.6331 342° North 360 414 29,000  Level Indianapolis Center
Sat 05:06:59 PM 39.5589 -85.6739 344° North 360 414 29,000  Level Indianapolis Center
Sat 05:09:13 PM 39.7733 -85.7547 342° North 379 436 29,000 -402 Level Chicago Center
Sat 05:10:13 PM 39.8683 -85.7956 343° North 365 420 27,700 -1,600 Descending Chicago Center
Sat 05:11:13 PM 39.9569 -85.8317 344° North 343 395 25,800 -1,800 Descending Chicago Center
Sat 05:12:13 PM 40.0436 -85.8650 339° North 337 388 24,100 -900 Descending Chicago Center
Sat 05:13:13 PM 40.1325 -85.9092 336° Northwest 331 381 24,000 -100 Descending Chicago Center
Sat 05:14:13 PM 40.2322 -85.9667 337° Northwest 342 394 23,900 -600 Descending Chicago Center
Sat 05:15:13 PM 40.3214 -86.0167 336° Northwest 348 400 22,800 -1,050 Descending Chicago Center
Sat 05:16:13 PM 40.4061 -86.0669 337° Northwest 343 395 21,800 -1,000 Descending Chicago Center
Sat 05:17:13 PM 40.4950 -86.1172 337° Northwest 338 389 20,800 -1,000 Descending Chicago Center
Sat 05:18:13 PM 40.5756 -86.1625 336° Northwest 338 389 19,800 -1,000 Descending Chicago Center
Sat 05:19:13 PM 40.6583 -86.2106 338° Northwest 325 374 18,800 -1,000 Descending Chicago Center
Sat 05:20:13 PM 40.7386 -86.2533 337° Northwest 313 360 17,800 -1,100 Descending Chicago Center
Sat 05:21:13 PM 40.8003 -86.2886 335° Northwest 307 353 16,600 -1,600 Descending Chicago Center
Sat 05:22:13 PM 40.8892 -86.3422 338° Northwest 307 353 14,600 -1,900 Descending Chicago Center
Sat 05:23:13 PM 40.9653 -86.3828 335° Northwest 307 353 12,800 -1,750 Descending Chicago Center
Sat 05:24:13 PM 41.0394 -86.4289 314° West 299 344 11,100 -950 Descending Chicago Center
Sat 05:25:13 PM 41.0956 -86.5064 312° West 287 330 10,900 -500 Descending Chicago Center
Sat 05:26:13 PM 41.1389 -86.5706 310° West 277 319 10,100 -400 Descending Chicago Center
Sat 05:27:13 PM 41.1931 -86.6567 312° West 292 336 10,100  Level Chicago Center
Sat 05:28:13 PM 41.2600 -86.7561 308° West 305 351 10,100  Level Chicago Center
Sat 05:29:13 PM 41.3100 -86.8425 312° West 311 358 10,100 -50 Level Chicago Center
Sat 05:30:13 PM 41.3639 -86.9236 311° West 306 352 10,000 -500 Descending Chicago Center
Sat 05:31:13 PM 41.4111 -86.9964 302° West 281 323 9,100 -1,362 Descending Chicago Center
Sat 05:33:40 PM 41.5000 -87.1833 294° West 266 306 5,300 -1,478 Descending Chicago TRACON
Sat 05:34:40 PM 41.5333 -87.2833 298° West 266 306 4,000 -650 Descending Chicago TRACON
Sat 05:35:40 PM 41.5667 -87.3667 298° West 261 300 4,000  Level Chicago TRACON
Sat 05:36:40 PM 41.6000 -87.4500 315° West 262 302 4,000  Level Chicago TRACON
Sat 05:37:34 PM 41.6500 -87.5167 304° West 264 304 4,000 -316 Level Chicago TRACON
Sat 05:38:34 PM 41.6833 -87.5833 315° West 226 260 3,400 -750 Descending Chicago TRACON
Sat 05:39:34 PM 41.7333 -87.6500 360° North 228 262 2,500 -526 Descending Chicago TRACON
Sat 05:40:28 PM 41.7833 -87.6500 323° Northwest 186 214 2,400 -368 Descending Chicago TRACON
Sat 05:41:28 PM 41.8167 -87.6833 246° West 154 177 1,800 -700 Descending Chicago TRACON
Sat 05:42:28 PM 41.8000 -87.7333 246° West 130 150 1,000 -800 Descending Chicago TRACON

Login

Don't have an account? Register now (free) for customized features, flight alerts, and more!